sensor_id;sensor_type;location;lat;lon;timestamp;P1;durP1;ratioP1;P2;durP2;ratioP2
57893;SDS011;43710;47.460;19.034;2023-04-24T04:08:24;16.12;;;12.85;;
57893;SDS011;43710;47.460;19.034;2023-04-24T04:11:27;15.52;;;11.93;;
57893;SDS011;43710;47.460;19.034;2023-04-24T04:14:29;15.93;;;12.10;;
57893;SDS011;43710;47.460;19.034;2023-04-24T04:17:32;18.85;;;12.13;;
57893;SDS011;43710;47.460;19.034;2023-04-24T04:20:35;16.35;;;11.95;;
57893;SDS011;43710;47.460;19.034;2023-04-24T04:23:37;14.87;;;12.50;;
57893;SDS011;43710;47.460;19.034;2023-04-24T04:26:41;14.07;;;12.57;;
57893;SDS011;43710;47.460;19.034;2023-04-24T04:29:50;15.23;;;12.60;;
57893;SDS011;43710;47.460;19.034;2023-04-24T04:32:52;15.90;;;13.00;;
57893;SDS011;43710;47.460;19.034;2023-04-24T04:35:55;14.25;;;11.60;;
57893;SDS011;43710;47.460;19.034;2023-04-24T04:39:01;16.00;;;11.93;;
57893;SDS011;43710;47.460;19.034;2023-04-24T04:42:06;15.23;;;12.73;;
57893;SDS011;43710;47.460;19.034;2023-04-24T04:45:09;14.98;;;11.95;;
57893;SDS011;43710;47.460;19.034;2023-04-24T04:48:16;16.20;;;11.55;;
57893;SDS011;43710;47.460;19.034;2023-04-24T04:51:20;13.18;;;11.63;;
57893;SDS011;43710;47.460;19.034;2023-04-24T04:54:23;15.90;;;13.18;;
57893;SDS011;43710;47.460;19.034;2023-04-24T04:57:25;14.85;;;11.95;;
57893;SDS011;43710;47.460;19.034;2023-04-24T05:00:28;16.05;;;11.95;;
57893;SDS011;43710;47.460;19.034;2023-04-24T05:03:38;13.23;;;11.15;;
57893;SDS011;43710;47.460;19.034;2023-04-24T05:06:41;15.07;;;11.68;;
57893;SDS011;43710;47.460;19.034;2023-04-24T05:09:43;15.02;;;11.88;;
57893;SDS011;43710;47.460;19.034;2023-04-24T05:12:47;23.62;;;11.93;;
57893;SDS011;43710;47.460;19.034;2023-04-24T05:15:51;15.60;;;11.48;;
57893;SDS011;43710;47.460;19.034;2023-04-24T05:18:54;14.98;;;12.18;;
57893;SDS011;43710;47.460;19.034;2023-04-24T05:21:57;13.48;;;11.38;;
57893;SDS011;43710;47.460;19.034;2023-04-24T05:25:00;15.95;;;11.45;;
57893;SDS011;43710;47.460;19.034;2023-04-24T05:28:02;15.70;;;12.18;;
57893;SDS011;43710;47.460;19.034;2023-04-24T05:31:05;14.10;;;11.80;;
57893;SDS011;43710;47.460;19.034;2023-04-24T05:34:09;12.48;;;11.15;;
57893;SDS011;43710;47.460;19.034;2023-04-24T05:37:13;15.20;;;12.27;;
57893;SDS011;43710;47.460;19.034;2023-04-24T05:40:16;16.40;;;11.68;;
57893;SDS011;43710;47.460;19.034;2023-04-24T05:43:18;20.95;;;11.50;;
57893;SDS011;43710;47.460;19.034;2023-04-24T05:46:20;14.82;;;11.85;;
57893;SDS011;43710;47.460;19.034;2023-04-24T05:49:24;13.90;;;12.13;;
57893;SDS011;43710;47.460;19.034;2023-04-24T05:52:26;14.10;;;11.02;;
57893;SDS011;43710;47.460;19.034;2023-04-24T05:55:30;16.40;;;11.68;;
57893;SDS011;43710;47.460;19.034;2023-04-24T05:58:32;15.48;;;12.10;;
57893;SDS011;43710;47.460;19.034;2023-04-24T06:01:36;20.45;;;13.80;;
57893;SDS011;43710;47.460;19.034;2023-04-24T06:04:40;15.43;;;11.73;;
57893;SDS011;43710;47.460;19.034;2023-04-24T06:07:43;18.05;;;11.88;;
57893;SDS011;43710;47.460;19.034;2023-04-24T06:10:47;17.77;;;12.10;;
57893;SDS011;43710;47.460;19.034;2023-04-24T06:13:50;16.75;;;12.25;;
57893;SDS011;43710;47.460;19.034;2023-04-24T06:16:59;17.73;;;11.48;;
57893;SDS011;43710;47.460;19.034;2023-04-24T06:20:02;14.05;;;11.93;;
57893;SDS011;43710;47.460;19.034;2023-04-24T06:23:07;14.35;;;11.93;;
57893;SDS011;43710;47.460;19.034;2023-04-24T06:26:09;15.75;;;12.00;;
57893;SDS011;43710;47.460;19.034;2023-04-24T06:29:12;16.12;;;12.48;;
57893;SDS011;43710;47.460;19.034;2023-04-24T06:32:15;15.38;;;13.73;;
57893;SDS011;43710;47.460;19.034;2023-04-24T06:35:17;15.73;;;12.40;;
57893;SDS011;43710;47.460;19.034;2023-04-24T06:38:19;14.68;;;12.80;;
57893;SDS011;43710;47.460;19.034;2023-04-24T06:41:22;18.20;;;12.27;;
57893;SDS011;43710;47.460;19.034;2023-04-24T06:44:24;15.57;;;11.75;;
57893;SDS011;43710;47.460;19.034;2023-04-24T06:47:26;14.65;;;12.18;;
57893;SDS011;43710;47.460;19.034;2023-04-24T06:50:29;14.40;;;12.80;;
57893;SDS011;43710;47.460;19.034;2023-04-24T06:53:31;14.57;;;11.93;;
57893;SDS011;43710;47.460;19.034;2023-04-24T06:56:34;14.65;;;11.52;;
57893;SDS011;43710;47.460;19.034;2023-04-24T06:59:37;12.52;;;11.12;;
57893;SDS011;43710;47.460;19.034;2023-04-24T07:02:40;15.52;;;12.18;;
57893;SDS011;43710;47.460;19.034;2023-04-24T07:05:43;19.33;;;12.95;;
57893;SDS011;43710;47.460;19.034;2023-04-24T07:08:45;17.77;;;12.95;;
57893;SDS011;43710;47.460;19.034;2023-04-24T07:11:49;14.90;;;13.20;;
57893;SDS011;43710;47.460;19.034;2023-04-24T07:14:51;16.95;;;13.05;;
57893;SDS011;43710;47.460;19.034;2023-04-24T07:17:54;15.60;;;12.60;;
57893;SDS011;43710;47.460;19.034;2023-04-24T07:20:56;14.13;;;12.65;;
57893;SDS011;43710;47.460;19.034;2023-04-24T07:23:58;13.43;;;12.00;;
57893;SDS011;43710;47.460;19.034;2023-04-24T07:27:01;12.25;;;11.05;;
57893;SDS011;43710;47.460;19.034;2023-04-24T07:30:04;14.23;;;12.02;;
57893;SDS011;43710;47.460;19.034;2023-04-24T07:33:07;21.85;;;11.27;;
57893;SDS011;43710;47.460;19.034;2023-04-24T07:36:09;14.73;;;12.90;;
57893;SDS011;43710;47.460;19.034;2023-04-24T07:39:17;13.98;;;11.60;;
57893;SDS011;43710;47.460;19.034;2023-04-24T07:42:20;17.02;;;12.32;;
57893;SDS011;43710;47.460;19.034;2023-04-24T07:45:22;15.75;;;12.48;;
57893;SDS011;43710;47.460;19.034;2023-04-24T07:48:26;14.93;;;11.25;;
57893;SDS011;43710;47.460;19.034;2023-04-24T07:51:28;16.40;;;12.45;;
57893;SDS011;43710;47.460;19.034;2023-04-24T07:54:30;17.90;;;11.88;;
57893;SDS011;43710;47.460;19.034;2023-04-24T07:57:32;13.20;;;11.10;;
57893;SDS011;43710;47.460;19.034;2023-04-24T08:00:35;13.40;;;10.40;;
57893;SDS011;43710;47.460;19.034;2023-04-24T08:03:38;14.27;;;10.82;;
57893;SDS011;43710;47.460;19.034;2023-04-24T08:06:40;13.93;;;11.10;;
57893;SDS011;43710;47.460;19.034;2023-04-24T08:09:42;13.68;;;10.70;;
57893;SDS011;43710;47.460;19.034;2023-04-24T08:12:45;14.85;;;10.75;;
57893;SDS011;43710;47.460;19.034;2023-04-24T08:15:47;13.52;;;10.80;;
57893;SDS011;43710;47.460;19.034;2023-04-24T08:18:50;12.50;;;11.20;;
57893;SDS011;43710;47.460;19.034;2023-04-24T08:21:53;14.93;;;11.25;;
57893;SDS011;43710;47.460;19.034;2023-04-24T08:24:55;13.98;;;11.73;;
57893;SDS011;43710;47.460;19.034;2023-04-24T08:27:59;14.52;;;12.13;;
57893;SDS011;43710;47.460;19.034;2023-04-24T08:31:01;16.75;;;11.82;;
57893;SDS011;43710;47.460;19.034;2023-04-24T08:34:05;13.93;;;12.07;;
57893;SDS011;43710;47.460;19.034;2023-04-24T08:40:28;15.27;;;12.13;;
57893;SDS011;43710;47.460;19.034;2023-04-24T08:43:32;15.25;;;11.52;;
57893;SDS011;43710;47.460;19.034;2023-04-24T08:46:36;11.88;;;10.48;;
57893;SDS011;43710;47.460;19.034;2023-04-24T08:49:39;13.88;;;11.32;;
57893;SDS011;43710;47.460;19.034;2023-04-24T08:52:41;16.00;;;10.80;;
57893;SDS011;43710;47.460;19.034;2023-04-24T08:55:44;12.93;;;10.63;;
57893;SDS011;43710;47.460;19.034;2023-04-24T08:58:50;12.63;;;11.10;;
57893;SDS011;43710;47.460;19.034;2023-04-24T09:01:53;13.30;;;10.55;;
57893;SDS011;43710;47.460;19.034;2023-04-24T09:04:57;13.45;;;11.07;;
57893;SDS011;43710;47.460;19.034;2023-04-24T09:08:00;11.65;;;10.40;;
57893;SDS011;43710;47.460;19.034;2023-04-24T09:11:04;16.00;;;11.50;;
57893;SDS011;43710;47.460;19.034;2023-04-24T09:14:06;13.52;;;11.00;;
57893;SDS011;43710;47.460;19.034;2023-04-24T09:17:09;17.62;;;10.90;;
57893;SDS011;43710;47.460;19.034;2023-04-24T09:20:11;13.00;;;10.18;;
57893;SDS011;43710;47.460;19.034;2023-04-24T09:23:17;14.23;;;10.48;;
57893;SDS011;43710;47.460;19.034;2023-04-24T09:26:20;15.38;;;10.60;;
57893;SDS011;43710;47.460;19.034;2023-04-24T09:29:24;13.67;;;10.37;;
57893;SDS011;43710;47.460;19.034;2023-04-24T09:32:27;12.13;;;9.48;;
57893;SDS011;43710;47.460;19.034;2023-04-24T09:35:32;12.45;;;9.52;;
57893;SDS011;43710;47.460;19.034;2023-04-24T09:38:35;14.48;;;10.18;;
57893;SDS011;43710;47.460;19.034;2023-04-24T09:41:54;14.80;;;9.93;;
57893;SDS011;43710;47.460;19.034;2023-04-24T09:44:59;12.73;;;9.65;;
57893;SDS011;43710;47.460;19.034;2023-04-24T09:48:16;14.57;;;8.75;;
57893;SDS011;43710;47.460;19.034;2023-04-24T09:51:18;12.95;;;8.93;;
57893;SDS011;43710;47.460;19.034;2023-04-24T09:54:38;11.18;;;8.88;;
57893;SDS011;43710;47.460;19.034;2023-04-24T09:57:47;10.40;;;8.98;;
57893;SDS011;43710;47.460;19.034;2023-04-24T10:00:59;12.30;;;9.20;;
57893;SDS011;43710;47.460;19.034;2023-04-24T10:04:01;11.70;;;9.02;;
57893;SDS011;43710;47.460;19.034;2023-04-24T10:07:06;9.90;;;7.57;;
57893;SDS011;43710;47.460;19.034;2023-04-24T10:10:12;12.60;;;8.70;;
57893;SDS011;43710;47.460;19.034;2023-04-24T10:13:14;12.05;;;7.78;;
57893;SDS011;43710;47.460;19.034;2023-04-24T10:16:20;10.70;;;8.27;;
57893;SDS011;43710;47.460;19.034;2023-04-24T10:19:25;10.45;;;7.90;;
57893;SDS011;43710;47.460;19.034;2023-04-24T10:22:28;8.43;;;6.82;;
57893;SDS011;43710;47.460;19.034;2023-04-24T10:25:33;8.35;;;7.45;;
57893;SDS011;43710;47.460;19.034;2023-04-24T10:28:36;10.25;;;7.75;;
57893;SDS011;43710;47.460;19.034;2023-04-24T10:31:39;9.65;;;7.72;;
57893;SDS011;43710;47.460;19.034;2023-04-24T10:34:43;11.53;;;9.23;;
57893;SDS011;43710;47.460;19.034;2023-04-24T10:37:48;13.52;;;9.20;;
57893;SDS011;43710;47.460;19.034;2023-04-24T10:40:57;10.70;;;9.00;;
57893;SDS011;43710;47.460;19.034;2023-04-24T10:44:09;14.55;;;9.23;;
57893;SDS011;43710;47.460;19.034;2023-04-24T10:47:13;10.83;;;9.40;;
57893;SDS011;43710;47.460;19.034;2023-04-24T10:50:16;11.52;;;9.80;;
57893;SDS011;43710;47.460;19.034;2023-04-24T10:53:23;11.45;;;10.23;;
57893;SDS011;43710;47.460;19.034;2023-04-24T10:56:28;13.98;;;10.07;;
57893;SDS011;43710;47.460;19.034;2023-04-24T10:59:34;16.77;;;9.32;;
57893;SDS011;43710;47.460;19.034;2023-04-24T11:02:37;10.77;;;8.75;;
57893;SDS011;43710;47.460;19.034;2023-04-24T11:09:10;12.90;;;8.77;;
57893;SDS011;43710;47.460;19.034;2023-04-24T11:12:18;14.70;;;9.68;;
57893;SDS011;43710;47.460;19.034;2023-04-24T11:15:20;12.45;;;9.23;;
57893;SDS011;43710;47.460;19.034;2023-04-24T11:18:23;11.48;;;8.80;;
57893;SDS011;43710;47.460;19.034;2023-04-24T11:21:30;11.43;;;9.65;;
57893;SDS011;43710;47.460;19.034;2023-04-24T11:27:49;15.07;;;9.40;;
57893;SDS011;43710;47.460;19.034;2023-04-24T11:30:53;11.65;;;9.23;;
57893;SDS011;43710;47.460;19.034;2023-04-24T11:33:57;13.23;;;9.55;;
57893;SDS011;43710;47.460;19.034;2023-04-24T11:37:12;14.55;;;9.40;;
57893;SDS011;43710;47.460;19.034;2023-04-24T11:40:16;13.82;;;9.43;;
57893;SDS011;43710;47.460;19.034;2023-04-24T11:43:22;15.98;;;10.20;;
57893;SDS011;43710;47.460;19.034;2023-04-24T11:46:29;15.25;;;10.18;;
57893;SDS011;43710;47.460;19.034;2023-04-24T11:49:36;12.95;;;10.18;;
57893;SDS011;43710;47.460;19.034;2023-04-24T11:52:43;16.75;;;10.35;;
57893;SDS011;43710;47.460;19.034;2023-04-24T11:55:49;16.60;;;10.20;;
57893;SDS011;43710;47.460;19.034;2023-04-24T11:58:52;15.85;;;10.52;;
57893;SDS011;43710;47.460;19.034;2023-04-24T12:01:58;13.43;;;8.35;;
57893;SDS011;43710;47.460;19.034;2023-04-24T12:05:00;10.48;;;7.70;;
57893;SDS011;43710;47.460;19.034;2023-04-24T12:08:03;11.93;;;7.72;;
57893;SDS011;43710;47.460;19.034;2023-04-24T12:11:07;13.00;;;8.77;;
57893;SDS011;43710;47.460;19.034;2023-04-24T12:14:11;11.18;;;9.73;;
57893;SDS011;43710;47.460;19.034;2023-04-24T12:17:15;12.95;;;10.05;;
57893;SDS011;43710;47.460;19.034;2023-04-24T12:20:26;13.20;;;9.95;;
57893;SDS011;43710;47.460;19.034;2023-04-24T12:23:34;15.48;;;9.88;;
57893;SDS011;43710;47.460;19.034;2023-04-24T12:26:42;12.43;;;10.45;;
57893;SDS011;43710;47.460;19.034;2023-04-24T12:30:19;17.65;;;10.10;;
57893;SDS011;43710;47.460;19.034;2023-04-24T12:33:21;15.93;;;10.35;;
57893;SDS011;43710;47.460;19.034;2023-04-24T12:36:23;14.38;;;10.05;;
57893;SDS011;43710;47.460;19.034;2023-04-24T12:39:26;11.38;;;9.40;;
57893;SDS011;43710;47.460;19.034;2023-04-24T12:42:29;11.20;;;8.88;;
57893;SDS011;43710;47.460;19.034;2023-04-24T12:45:32;14.35;;;8.50;;
57893;SDS011;43710;47.460;19.034;2023-04-24T12:48:35;10.00;;;8.20;;
57893;SDS011;43710;47.460;19.034;2023-04-24T12:51:37;14.68;;;8.10;;
57893;SDS011;43710;47.460;19.034;2023-04-24T12:54:40;15.70;;;8.60;;
57893;SDS011;43710;47.460;19.034;2023-04-24T12:57:42;10.30;;;7.57;;
57893;SDS011;43710;47.460;19.034;2023-04-24T13:00:44;10.40;;;7.57;;
57893;SDS011;43710;47.460;19.034;2023-04-24T13:03:47;16.35;;;7.97;;
57893;SDS011;43710;47.460;19.034;2023-04-24T13:06:50;9.95;;;7.62;;
57893;SDS011;43710;47.460;19.034;2023-04-24T13:09:52;10.07;;;6.75;;
57893;SDS011;43710;47.460;19.034;2023-04-24T13:12:56;12.68;;;7.30;;
57893;SDS011;43710;47.460;19.034;2023-04-24T13:15:59;10.55;;;6.85;;
57893;SDS011;43710;47.460;19.034;2023-04-24T13:19:02;11.23;;;7.10;;
57893;SDS011;43710;47.460;19.034;2023-04-24T13:22:04;7.18;;;5.40;;
57893;SDS011;43710;47.460;19.034;2023-04-24T13:25:07;9.77;;;5.05;;
57893;SDS011;43710;47.460;19.034;2023-04-24T13:28:10;12.23;;;5.18;;
57893;SDS011;43710;47.460;19.034;2023-04-24T13:31:13;10.90;;;5.30;;
57893;SDS011;43710;47.460;19.034;2023-04-24T13:34:17;12.48;;;5.45;;
57893;SDS011;43710;47.460;19.034;2023-04-24T13:37:20;7.50;;;4.60;;
57893;SDS011;43710;47.460;19.034;2023-04-24T13:40:22;10.77;;;4.40;;
57893;SDS011;43710;47.460;19.034;2023-04-24T13:43:25;8.60;;;5.03;;
57893;SDS011;43710;47.460;19.034;2023-04-24T13:46:28;9.25;;;4.22;;
57893;SDS011;43710;47.460;19.034;2023-04-24T13:49:30;8.68;;;4.53;;
57893;SDS011;43710;47.460;19.034;2023-04-24T13:52:32;6.50;;;4.70;;
57893;SDS011;43710;47.460;19.034;2023-04-24T13:55:35;13.50;;;4.85;;
57893;SDS011;43710;47.460;19.034;2023-04-24T13:58:38;8.63;;;4.90;;
57893;SDS011;43710;47.460;19.034;2023-04-24T14:01:40;10.07;;;5.55;;
57893;SDS011;43710;47.460;19.034;2023-04-24T14:04:43;13.60;;;6.35;;
57893;SDS011;43710;47.460;19.034;2023-04-24T14:07:45;9.00;;;5.90;;
57893;SDS011;43710;47.460;19.034;2023-04-24T14:10:48;9.77;;;6.43;;
57893;SDS011;43710;47.460;19.034;2023-04-24T14:13:50;17.58;;;8.15;;
57893;SDS011;43710;47.460;19.034;2023-04-24T14:16:52;17.80;;;8.70;;
57893;SDS011;43710;47.460;19.034;2023-04-24T14:19:55;14.52;;;7.80;;
57893;SDS011;43710;47.460;19.034;2023-04-24T14:22:58;13.30;;;7.60;;
57893;SDS011;43710;47.460;19.034;2023-04-24T14:26:00;12.75;;;7.20;;
57893;SDS011;43710;47.460;19.034;2023-04-24T14:29:03;12.13;;;8.07;;
57893;SDS011;43710;47.460;19.034;2023-04-24T14:32:16;13.40;;;7.35;;
57893;SDS011;43710;47.460;19.034;2023-04-24T14:35:18;9.15;;;7.90;;
57893;SDS011;43710;47.460;19.034;2023-04-24T14:38:21;14.35;;;8.02;;
57893;SDS011;43710;47.460;19.034;2023-04-24T14:41:24;9.50;;;7.82;;
57893;SDS011;43710;47.460;19.034;2023-04-24T14:44:26;11.85;;;8.52;;
57893;SDS011;43710;47.460;19.034;2023-04-24T14:47:30;11.82;;;8.48;;
57893;SDS011;43710;47.460;19.034;2023-04-24T14:50:32;11.90;;;9.25;;
57893;SDS011;43710;47.460;19.034;2023-04-24T14:53:34;15.88;;;10.13;;
57893;SDS011;43710;47.460;19.034;2023-04-24T14:56:37;13.95;;;9.48;;
57893;SDS011;43710;47.460;19.034;2023-04-24T14:59:41;10.57;;;9.48;;
57893;SDS011;43710;47.460;19.034;2023-04-24T15:02:43;10.80;;;9.52;;
57893;SDS011;43710;47.460;19.034;2023-04-24T15:05:47;11.35;;;9.48;;
57893;SDS011;43710;47.460;19.034;2023-04-24T15:08:49;11.45;;;9.63;;
57893;SDS011;43710;47.460;19.034;2023-04-24T15:11:52;10.95;;;9.88;;
57893;SDS011;43710;47.460;19.034;2023-04-24T15:14:54;10.35;;;9.27;;
57893;SDS011;43710;47.460;19.034;2023-04-24T15:17:56;10.88;;;9.30;;
57893;SDS011;43710;47.460;19.034;2023-04-24T15:20:59;10.90;;;8.55;;
57893;SDS011;43710;47.460;19.034;2023-04-24T15:24:01;11.32;;;9.02;;
